sensor_id;sensor_type;location;lat;lon;timestamp;pressure;altitude;pressure_sealevel;temperature;humidity
26487;BME280;14425;56.136;40.360;2023-02-26T00:00:13;97809.00;;;0.39;100.00
26487;BME280;14425;56.136;40.360;2023-02-26T00:02:41;97763.34;;;0.39;100.00
26487;BME280;14425;56.136;40.360;2023-02-26T00:05:07;97787.25;;;0.44;100.00
26487;BME280;14425;56.136;40.360;2023-02-26T00:07:33;97775.63;;;0.49;100.00
26487;BME280;14425;56.136;40.360;2023-02-26T00:09:59;97777.94;;;0.44;100.00
26487;BME280;14425;56.136;40.360;2023-02-26T00:12:29;97781.22;;;0.42;100.00
26487;BME280;14425;56.136;40.360;2023-02-26T00:14:55;97777.94;;;0.44;100.00
26487;BME280;14425;56.136;40.360;2023-02-26T00:19:52;97771.28;;;0.46;100.00
26487;BME280;14425;56.136;40.360;2023-02-26T00:22:17;97771.16;;;0.43;100.00
26487;BME280;14425;56.136;40.360;2023-02-26T00:24:43;97756.53;;;0.38;100.00
26487;BME280;14425;56.136;40.360;2023-02-26T00:27:10;97749.84;;;0.40;100.00
26487;BME280;14425;56.136;40.360;2023-02-26T00:29:36;97744.53;;;0.33;100.00
26487;BME280;14425;56.136;40.360;2023-02-26T00:32:02;97731.31;;;0.41;100.00
26487;BME280;14425;56.136;40.360;2023-02-26T00:34:28;97726.50;;;0.47;100.00
26487;BME280;14425;56.136;40.360;2023-02-26T00:42:19;97727.84;;;0.39;100.00
26487;BME280;14425;56.136;40.360;2023-02-26T00:44:44;97726.16;;;0.39;100.00
26487;BME280;14425;56.136;40.360;2023-02-26T00:47:25;97714.94;;;0.34;100.00
26487;BME280;14425;56.136;40.360;2023-02-26T00:52:36;97739.13;;;0.45;100.00
26487;BME280;14425;56.136;40.360;2023-02-26T00:55:03;97726.22;;;0.41;100.00
26487;BME280;14425;56.136;40.360;2023-02-26T00:57:30;97724.56;;;0.41;100.00
26487;BME280;14425;56.136;40.360;2023-02-26T00:59:55;97711.28;;;0.47;100.00
26487;BME280;14425;56.136;40.360;2023-02-26T01:02:21;97710.22;;;0.42;100.00
26487;BME280;14425;56.136;40.360;2023-02-26T01:04:46;97728.84;;;0.42;100.00
26487;BME280;14425;56.136;40.360;2023-02-26T01:07:13;97722.63;;;0.35;100.00
26487;BME280;14425;56.136;40.360;2023-02-26T01:09:39;97706.88;;;0.43;100.00
26487;BME280;14425;56.136;40.360;2023-02-26T01:12:08;97715.16;;;0.39;100.00
26487;BME280;14425;56.136;40.360;2023-02-26T01:14:34;97703.41;;;0.41;100.00
26487;BME280;14425;56.136;40.360;2023-02-26T01:22:29;97676.97;;;0.35;100.00
26487;BME280;14425;56.136;40.360;2023-02-26T01:25:06;97670.22;;;0.36;100.00
26487;BME280;14425;56.136;40.360;2023-02-26T01:27:32;97646.97;;;0.25;100.00
26487;BME280;14425;56.136;40.360;2023-02-26T01:29:57;97652.22;;;0.30;100.00
26487;BME280;14425;56.136;40.360;2023-02-26T01:32:34;97640.56;;;0.33;100.00
26487;BME280;14425;56.136;40.360;2023-02-26T01:35:57;97657.41;;;0.33;100.00
26487;BME280;14425;56.136;40.360;2023-02-26T01:40:34;97642.19;;;0.33;100.00
26487;BME280;14425;56.136;40.360;2023-02-26T01:43:12;97636.22;;;0.31;100.00
26487;BME280;14425;56.136;40.360;2023-02-26T01:45:55;97642.88;;;0.29;100.00
26487;BME280;14425;56.136;40.360;2023-02-26T01:48:33;97638.88;;;0.34;100.00
26487;BME280;14425;56.136;40.360;2023-02-26T01:51:00;97625.13;;;0.29;100.00
26487;BME280;14425;56.136;40.360;2023-02-26T01:53:25;97616.53;;;0.25;100.00
26487;BME280;14425;56.136;40.360;2023-02-26T01:55:57;97616.00;;;0.13;100.00
26487;BME280;14425;56.136;40.360;2023-02-26T01:58:27;97597.66;;;0.18;100.00
26487;BME280;14425;56.136;40.360;2023-02-26T02:00:55;97584.38;;;0.24;100.00
26487;BME280;14425;56.136;40.360;2023-02-26T02:03:21;97574.91;;;0.20;100.00
26487;BME280;14425;56.136;40.360;2023-02-26T02:05:56;97565.91;;;0.27;100.00
26487;BME280;14425;56.136;40.360;2023-02-26T02:08:24;97568.81;;;0.16;100.00
26487;BME280;14425;56.136;40.360;2023-02-26T02:10:51;97554.56;;;0.18;100.00
26487;BME280;14425;56.136;40.360;2023-02-26T02:16:17;97541.91;;;0.18;100.00
26487;BME280;14425;56.136;40.360;2023-02-26T02:24:34;97542.69;;;0.17;100.00
26487;BME280;14425;56.136;40.360;2023-02-26T02:27:14;97529.09;;;0.15;100.00
26487;BME280;14425;56.136;40.360;2023-02-26T02:32:21;97513.31;;;0.23;100.00
26487;BME280;14425;56.136;40.360;2023-02-26T02:37:36;97522.47;;;0.19;100.00
26487;BME280;14425;56.136;40.360;2023-02-26T02:40:10;97512.94;;;0.13;100.00
26487;BME280;14425;56.136;40.360;2023-02-26T02:48:01;97497.97;;;0.20;100.00
26487;BME280;14425;56.136;40.360;2023-02-26T02:51:16;97477.50;;;0.15;100.00
26487;BME280;14425;56.136;40.360;2023-02-26T02:56:53;97466.00;;;0.23;100.00
26487;BME280;14425;56.136;40.360;2023-02-26T02:59:53;97470.28;;;0.24;100.00
26487;BME280;14425;56.136;40.360;2023-02-26T03:02:45;97472.44;;;0.15;100.00
26487;BME280;14425;56.136;40.360;2023-02-26T03:05:13;97460.84;;;0.20;100.00
26487;BME280;14425;56.136;40.360;2023-02-26T03:07:46;97466.84;;;0.22;100.00
26487;BME280;14425;56.136;40.360;2023-02-26T03:10:13;97450.50;;;0.15;100.00
26487;BME280;14425;56.136;40.360;2023-02-26T03:12:38;97446.44;;;0.19;100.00
26487;BME280;14425;56.136;40.360;2023-02-26T03:15:04;97445.56;;;0.18;100.00
26487;BME280;14425;56.136;40.360;2023-02-26T03:18:11;97452.16;;;0.15;100.00
26487;BME280;14425;56.136;40.360;2023-02-26T03:23:42;97447.91;;;0.14;100.00
26487;BME280;14425;56.136;40.360;2023-02-26T03:26:29;97439.31;;;0.10;100.00
26487;BME280;14425;56.136;40.360;2023-02-26T03:29:11;97443.88;;;0.19;100.00
26487;BME280;14425;56.136;40.360;2023-02-26T03:32:01;97452.28;;;0.18;100.00
26487;BME280;14425;56.136;40.360;2023-02-26T03:34:36;97439.59;;;0.18;100.00
26487;BME280;14425;56.136;40.360;2023-02-26T03:37:46;97436.09;;;0.14;100.00
26487;BME280;14425;56.136;40.360;2023-02-26T03:40:08;97439.38;;;0.12;100.00
26487;BME280;14425;56.136;40.360;2023-02-26T03:45:28;97436.66;;;0.28;100.00
26487;BME280;14425;56.136;40.360;2023-02-26T03:47:57;97423.16;;;0.29;100.00
26487;BME280;14425;56.136;40.360;2023-02-26T03:50:41;97418.94;;;0.30;100.00
26487;BME280;14425;56.136;40.360;2023-02-26T03:53:11;97415.56;;;0.29;100.00
26487;BME280;14425;56.136;40.360;2023-02-26T03:55:45;97420.69;;;0.31;100.00
26487;BME280;14425;56.136;40.360;2023-02-26T03:58:13;97422.25;;;0.27;100.00
26487;BME280;14425;56.136;40.360;2023-02-26T04:00:41;97424.03;;;0.30;100.00
26487;BME280;14425;56.136;40.360;2023-02-26T04:03:18;97425.69;;;0.29;100.00
26487;BME280;14425;56.136;40.360;2023-02-26T04:05:48;97418.34;;;0.35;100.00
26487;BME280;14425;56.136;40.360;2023-02-26T04:08:16;97410.75;;;0.35;100.00
26487;BME280;14425;56.136;40.360;2023-02-26T04:10:46;97398.97;;;0.38;100.00
26487;BME280;14425;56.136;40.360;2023-02-26T04:13:15;97403.94;;;0.34;100.00
26487;BME280;14425;56.136;40.360;2023-02-26T04:15:41;97395.53;;;0.35;100.00
26487;BME280;14425;56.136;40.360;2023-02-26T04:18:06;97396.44;;;0.38;100.00
26487;BME280;14425;56.136;40.360;2023-02-26T04:20:32;97388.03;;;0.39;100.00
26487;BME280;14425;56.136;40.360;2023-02-26T04:22:58;97391.50;;;0.41;100.00
26487;BME280;14425;56.136;40.360;2023-02-26T04:25:24;97395.66;;;0.39;100.00
26487;BME280;14425;56.136;40.360;2023-02-26T04:27:49;97387.09;;;0.36;100.00
26487;BME280;14425;56.136;40.360;2023-02-26T04:30:15;97394.94;;;0.43;100.00
26487;BME280;14425;56.136;40.360;2023-02-26T04:32:41;97382.97;;;0.39;100.00
26487;BME280;14425;56.136;40.360;2023-02-26T04:35:07;97366.53;;;0.29;100.00
26487;BME280;14425;56.136;40.360;2023-02-26T04:37:32;97370.00;;;0.31;100.00
26487;BME280;14425;56.136;40.360;2023-02-26T04:39:58;97374.88;;;0.26;100.00
26487;BME280;14425;56.136;40.360;2023-02-26T04:42:23;97374.81;;;0.25;100.00
26487;BME280;14425;56.136;40.360;2023-02-26T04:44:49;97376.19;;;0.16;100.00
26487;BME280;14425;56.136;40.360;2023-02-26T04:47:14;97376.13;;;0.15;100.00
26487;BME280;14425;56.136;40.360;2023-02-26T04:49:40;97372.53;;;0.10;100.00
26487;BME280;14425;56.136;40.360;2023-02-26T04:52:05;97374.84;;;0.04;100.00
26487;BME280;14425;56.136;40.360;2023-02-26T04:54:31;97366.59;;;0.09;100.00
26487;BME280;14425;56.136;40.360;2023-02-26T04:56:57;97362.84;;;-0.01;100.00
26487;BME280;14425;56.136;40.360;2023-02-26T04:59:22;97373.81;;;-0.02;100.00
26487;BME280;14425;56.136;40.360;2023-02-26T05:01:48;97377.06;;;-0.04;100.00
26487;BME280;14425;56.136;40.360;2023-02-26T05:04:13;97370.19;;;-0.07;100.00
26487;BME280;14425;56.136;40.360;2023-02-26T05:06:39;97373.28;;;-0.14;100.00
26487;BME280;14425;56.136;40.360;2023-02-26T05:09:04;97361.66;;;-0.09;100.00
26487;BME280;14425;56.136;40.360;2023-02-26T05:11:30;97360.75;;;-0.11;100.00
26487;BME280;14425;56.136;40.360;2023-02-26T05:13:55;97363.28;;;-0.11;100.00
26487;BME280;14425;56.136;40.360;2023-02-26T05:16:21;97354.38;;;-0.01;100.00
26487;BME280;14425;56.136;40.360;2023-02-26T05:18:47;97369.91;;;0.07;100.00
26487;BME280;14425;56.136;40.360;2023-02-26T05:21:12;97367.72;;;-0.05;100.00
26487;BME280;14425;56.136;40.360;2023-02-26T05:23:38;97371.81;;;-0.09;100.00
26487;BME280;14425;56.136;40.360;2023-02-26T05:26:03;97382.84;;;-0.07;100.00
26487;BME280;14425;56.136;40.360;2023-02-26T05:28:29;97378.47;;;-0.11;100.00
26487;BME280;14425;56.136;40.360;2023-02-26T05:30:56;97365.31;;;-0.02;100.00
26487;BME280;14425;56.136;40.360;2023-02-26T05:33:22;97381.16;;;-0.08;100.00
26487;BME280;14425;56.136;40.360;2023-02-26T05:35:48;97380.56;;;-0.01;100.00
26487;BME280;14425;56.136;40.360;2023-02-26T05:38:13;97369.66;;;0.01;100.00
26487;BME280;14425;56.136;40.360;2023-02-26T05:40:39;97371.81;;;0.12;100.00
26487;BME280;14425;56.136;40.360;2023-02-26T05:43:05;97370.06;;;0.11;100.00
26487;BME280;14425;56.136;40.360;2023-02-26T05:45:30;97367.72;;;0.16;100.00
26487;BME280;14425;56.136;40.360;2023-02-26T05:47:56;97360.34;;;0.22;100.00
26487;BME280;14425;56.136;40.360;2023-02-26T05:50:21;97354.00;;;0.11;100.00
26487;BME280;14425;56.136;40.360;2023-02-26T05:52:47;97350.84;;;0.16;100.00
26487;BME280;14425;56.136;40.360;2023-02-26T05:55:12;97355.63;;;0.09;100.00
26487;BME280;14425;56.136;40.360;2023-02-26T05:57:38;97354.78;;;0.10;100.00
26487;BME280;14425;56.136;40.360;2023-02-26T06:00:05;97378.56;;;0.12;100.00
26487;BME280;14425;56.136;40.360;2023-02-26T06:02:31;97356.03;;;0.20;100.00
26487;BME280;14425;56.136;40.360;2023-02-26T06:04:56;97368.47;;;0.13;100.00
26487;BME280;14425;56.136;40.360;2023-02-26T06:07:22;97355.28;;;0.22;100.00
26487;BME280;14425;56.136;40.360;2023-02-26T06:09:48;97378.69;;;0.38;100.00
26487;BME280;14425;56.136;40.360;2023-02-26T06:12:14;97360.94;;;0.38;100.00
26487;BME280;14425;56.136;40.360;2023-02-26T06:14:39;97350.28;;;0.24;100.00
26487;BME280;14425;56.136;40.360;2023-02-26T06:17:05;97352.44;;;0.35;100.00
26487;BME280;14425;56.136;40.360;2023-02-26T06:19:31;97356.41;;;0.29;100.00
26487;BME280;14425;56.136;40.360;2023-02-26T06:21:57;97356.06;;;0.42;100.00
26487;BME280;14425;56.136;40.360;2023-02-26T06:24:22;97367.97;;;0.45;100.00
26487;BME280;14425;56.136;40.360;2023-02-26T06:26:48;97363.72;;;0.66;100.00
26487;BME280;14425;56.136;40.360;2023-02-26T06:29:14;97368.75;;;0.65;100.00
26487;BME280;14425;56.136;40.360;2023-02-26T06:31:39;97356.44;;;0.53;100.00
26487;BME280;14425;56.136;40.360;2023-02-26T06:34:05;97374.91;;;0.49;100.00
26487;BME280;14425;56.136;40.360;2023-02-26T06:36:30;97366.38;;;0.69;100.00
26487;BME280;14425;56.136;40.360;2023-02-26T06:38:56;97375.72;;;0.70;100.00
26487;BME280;14425;56.136;40.360;2023-02-26T06:41:21;97387.69;;;0.74;100.00
26487;BME280;14425;56.136;40.360;2023-02-26T06:43:47;97379.34;;;0.77;100.00
26487;BME280;14425;56.136;40.360;2023-02-26T06:46:12;97376.22;;;0.84;100.00
26487;BME280;14425;56.136;40.360;2023-02-26T06:48:38;97382.38;;;0.91;100.00
26487;BME280;14425;56.136;40.360;2023-02-26T06:51:04;97380.50;;;0.85;100.00
26487;BME280;14425;56.136;40.360;2023-02-26T06:53:29;97386.66;;;0.92;100.00
26487;BME280;14425;56.136;40.360;2023-02-26T06:55:55;97388.19;;;0.87;100.00
26487;BME280;14425;56.136;40.360;2023-02-26T06:58:20;97383.66;;;0.80;100.00
26487;BME280;14425;56.136;40.360;2023-02-26T07:00:46;97388.06;;;0.84;100.00
26487;BME280;14425;56.136;40.360;2023-02-26T07:03:14;97395.72;;;1.08;100.00
26487;BME280;14425;56.136;40.360;2023-02-26T07:05:40;97413.59;;;0.88;100.00
26487;BME280;14425;56.136;40.360;2023-02-26T07:08:06;97400.50;;;1.00;100.00
26487;BME280;14425;56.136;40.360;2023-02-26T07:10:33;97401.88;;;1.15;100.00
26487;BME280;14425;56.136;40.360;2023-02-26T07:12:59;97409.94;;;1.27;100.00
26487;BME280;14425;56.136;40.360;2023-02-26T07:15:25;97405.16;;;1.12;100.00
26487;BME280;14425;56.136;40.360;2023-02-26T07:17:50;97408.31;;;1.29;100.00
26487;BME280;14425;56.136;40.360;2023-02-26T07:20:16;97410.47;;;1.42;100.00
26487;BME280;14425;56.136;40.360;2023-02-26T07:22:43;97408.31;;;1.29;100.00
26487;BME280;14425;56.136;40.360;2023-02-26T07:25:09;97422.59;;;1.50;100.00
26487;BME280;14425;56.136;40.360;2023-02-26T07:27:35;97425.06;;;1.48;100.00
26487;BME280;14425;56.136;40.360;2023-02-26T07:30:01;97433.97;;;1.61;100.00
26487;BME280;14425;56.136;40.360;2023-02-26T07:32:29;97427.47;;;1.69;100.00
26487;BME280;14425;56.136;40.360;2023-02-26T07:34:55;97433.97;;;1.61;100.00
26487;BME280;14425;56.136;40.360;2023-02-26T07:37:21;97442.44;;;1.85;100.00
26487;BME280;14425;56.136;40.360;2023-02-26T07:39:46;97437.59;;;1.67;100.00
26487;BME280;14425;56.136;40.360;2023-02-26T07:42:12;97461.84;;;1.58;100.00
26487;BME280;14425;56.136;40.360;2023-02-26T07:44:37;97434.59;;;2.03;100.00
26487;BME280;14425;56.136;40.360;2023-02-26T07:47:03;97459.09;;;2.01;100.00
26487;BME280;14425;56.136;40.360;2023-02-26T07:49:28;97461.28;;;2.16;100.00
26487;BME280;14425;56.136;40.360;2023-02-26T07:51:54;97454.59;;;2.46;100.00
26487;BME280;14425;56.136;40.360;2023-02-26T07:54:20;97447.72;;;2.70;100.00
26487;BME280;14425;56.136;40.360;2023-02-26T07:56:45;97443.63;;;2.74;100.00
26487;BME280;14425;56.136;40.360;2023-02-26T07:59:11;97442.34;;;2.88;100.00
26487;BME280;14425;56.136;40.360;2023-02-26T08:01:37;97435.66;;;2.63;100.00
26487;BME280;14425;56.136;40.360;2023-02-26T08:04:03;97443.94;;;2.85;100.00
26487;BME280;14425;56.136;40.360;2023-02-26T08:06:28;97443.84;;;2.82;100.00
26487;BME280;14425;56.136;40.360;2023-02-26T08:08:54;97456.66;;;2.85;100.00
26487;BME280;14425;56.136;40.360;2023-02-26T08:11:20;97479.19;;;3.00;100.00
26487;BME280;14425;56.136;40.360;2023-02-26T08:13:45;97447.59;;;3.23;100.00
26487;BME280;14425;56.136;40.360;2023-02-26T08:16:11;97457.81;;;3.23;100.00
26487;BME280;14425;56.136;40.360;2023-02-26T08:18:36;97458.22;;;3.37;100.00
26487;BME280;14425;56.136;40.360;2023-02-26T08:21:04;97454.06;;;3.41;100.00
26487;BME280;14425;56.136;40.360;2023-02-26T08:23:30;97462.28;;;3.30;100.00
26487;BME280;14425;56.136;40.360;2023-02-26T08:26:04;97468.31;;;3.34;100.00
26487;BME280;14425;56.136;40.360;2023-02-26T08:28:30;97476.75;;;3.33;100.00
26487;BME280;14425;56.136;40.360;2023-02-26T08:30:57;97473.94;;;3.22;100.00
26487;BME280;14425;56.136;40.360;2023-02-26T08:33:23;97474.06;;;3.28;100.00
26487;BME280;14425;56.136;40.360;2023-02-26T08:35:50;97482.25;;;3.47;100.00
26487;BME280;14425;56.136;40.360;2023-02-26T08:38:16;97521.88;;;3.36;100.00
26487;BME280;14425;56.136;40.360;2023-02-26T08:40:42;97493.19;;;3.43;100.00
26487;BME280;14425;56.136;40.360;2023-02-26T08:43:08;97516.59;;;3.29;100.00
26487;BME280;14425;56.136;40.360;2023-02-26T08:45:35;97495.84;;;3.17;100.00
26487;BME280;14425;56.136;40.360;2023-02-26T08:48:01;97520.78;;;3.00;100.00
26487;BME280;14425;56.136;40.360;2023-02-26T08:50:26;97521.97;;;3.39;100.00
26487;BME280;14425;56.136;40.360;2023-02-26T08:52:52;97517.09;;;3.18;100.00
26487;BME280;14425;56.136;40.360;2023-02-26T08:55:18;97526.84;;;3.61;100.00
26487;BME280;14425;56.136;40.360;2023-02-26T08:57:43;97519.72;;;3.80;100.00
26487;BME280;14425;56.136;40.360;2023-02-26T09:00:09;97561.44;;;3.53;100.00
26487;BME280;14425;56.136;40.360;2023-02-26T09:02:36;97546.06;;;3.79;100.00
26487;BME280;14425;56.136;40.360;2023-02-26T09:05:03;97531.25;;;3.97;100.00
26487;BME280;14425;56.136;40.360;2023-02-26T09:07:29;97554.03;;;3.91;100.00
26487;BME280;14425;56.136;40.360;2023-02-26T09:09:55;97541.41;;;3.96;100.00
26487;BME280;14425;56.136;40.360;2023-02-26T09:12:20;97539.09;;;4.03;100.00
26487;BME280;14425;56.136;40.360;2023-02-26T09:14:46;97543.44;;;4.74;98.18
26487;BME280;14425;56.136;40.360;2023-02-26T09:17:11;97552.97;;;4.47;99.36
26487;BME280;14425;56.136;40.360;2023-02-26T09:19:37;97546.94;;;5.93;89.26
26487;BME280;14425;56.136;40.360;2023-02-26T09:22:03;97553.44;;;6.66;82.01
26487;BME280;14425;56.136;40.360;2023-02-26T09:24:29;97561.41;;;5.91;79.22
26487;BME280;14425;56.136;40.360;2023-02-26T09:26:54;97553.56;;;6.25;79.45
26487;BME280;14425;56.136;40.360;2023-02-26T09:29:20;97570.53;;;6.20;74.22
26487;BME280;14425;56.136;40.360;2023-02-26T09:31:45;97558.28;;;5.26;76.86
26487;BME280;14425;56.136;40.360;2023-02-26T09:34:14;97555.41;;;5.12;76.35
26487;BME280;14425;56.136;40.360;2023-02-26T09:36:45;97569.50;;;4.61;78.34
26487;BME280;14425;56.136;40.360;2023-02-26T09:39:11;97557.13;;;4.43;81.23
26487;BME280;14425;56.136;40.360;2023-02-26T09:41:41;97573.03;;;4.66;84.71
26487;BME280;14425;56.136;40.360;2023-02-26T09:44:14;97569.16;;;4.15;83.78
26487;BME280;14425;56.136;40.360;2023-02-26T09:51:46;97569.38;;;3.35;91.50
26487;BME280;14425;56.136;40.360;2023-02-26T09:54:30;97583.00;;;3.08;94.29
26487;BME280;14425;56.136;40.360;2023-02-26T09:56:59;97604.09;;;2.78;98.85
26487;BME280;14425;56.136;40.360;2023-02-26T09:59:31;97576.00;;;3.01;98.87
26487;BME280;14425;56.136;40.360;2023-02-26T10:07:19;97603.44;;;3.10;96.86
26487;BME280;14425;56.136;40.360;2023-02-26T10:09:53;97610.06;;;3.05;97.92
26487;BME280;14425;56.136;40.360;2023-02-26T10:12:26;97641.94;;;2.68;99.83
26487;BME280;14425;56.136;40.360;2023-02-26T10:15:10;97636.66;;;2.87;100.00
26487;BME280;14425;56.136;40.360;2023-02-26T10:18:15;97629.75;;;3.10;98.00
26487;BME280;14425;56.136;40.360;2023-02-26T10:21:09;97635.13;;;3.45;96.08
26487;BME280;14425;56.136;40.360;2023-02-26T10:23:49;97634.59;;;3.56;94.37
26487;BME280;14425;56.136;40.360;2023-02-26T10:26:18;97644.25;;;3.66;92.65
26487;BME280;14425;56.136;40.360;2023-02-26T10:36:23;97682.50;;;3.13;94.25
26487;BME280;14425;56.136;40.360;2023-02-26T10:38:57;97665.69;;;2.92;97.40
26487;BME280;14425;56.136;40.360;2023-02-26T10:41:27;97672.31;;;2.87;99.33
26487;BME280;14425;56.136;40.360;2023-02-26T10:46:56;97687.75;;;2.68;99.04
26487;BME280;14425;56.136;40.360;2023-02-26T10:52:14;97673.50;;;2.99;98.98
26487;BME280;14425;56.136;40.360;2023-02-26T10:54:47;97677.75;;;2.98;99.85
26487;BME280;14425;56.136;40.360;2023-02-26T10:57:23;97681.78;;;2.67;98.40
26487;BME280;14425;56.136;40.360;2023-02-26T10:59:49;97682.50;;;2.63;98.15
26487;BME280;14425;56.136;40.360;2023-02-26T11:02:36;97695.44;;;2.45;96.41
26487;BME280;14425;56.136;40.360;2023-02-26T11:05:05;97696.34;;;2.47;98.12
26487;BME280;14425;56.136;40.360;2023-02-26T11:07:32;97700.72;;;2.74;96.44
26487;BME280;14425;56.136;40.360;2023-02-26T11:10:01;97702.91;;;2.65;98.09
26487;BME280;14425;56.136;40.360;2023-02-26T11:12:28;97692.94;;;2.47;96.39
26487;BME280;14425;56.136;40.360;2023-02-26T11:14:53;97700.53;;;2.45;96.37
26487;BME280;14425;56.136;40.360;2023-02-26T11:17:26;97690.28;;;2.44;96.47
26487;BME280;14425;56.136;40.360;2023-02-26T11:20:14;97680.34;;;2.50;95.54
26487;BME280;14425;56.136;40.360;2023-02-26T11:22:46;97697.44;;;2.78;93.57
26487;BME280;14425;56.136;40.360;2023-02-26T11:25:17;97712.00;;;2.58;95.03
26487;BME280;14425;56.136;40.360;2023-02-26T11:27:47;97695.31;;;2.42;94.69
26487;BME280;14425;56.136;40.360;2023-02-26T11:30:18;97707.84;;;2.84;94.30
26487;BME280;14425;56.136;40.360;2023-02-26T11:32:49;97715.88;;;2.96;91.65
26487;BME280;14425;56.136;40.360;2023-02-26T11:35:16;97704.91;;;2.98;90.74
26487;BME280;14425;56.136;40.360;2023-02-26T11:37:48;97700.41;;;3.42;90.12
26487;BME280;14425;56.136;40.360;2023-02-26T11:40:22;97718.81;;;2.83;89.84
26487;BME280;14425;56.136;40.360;2023-02-26T11:42:53;97705.25;;;2.83;89.63
26487;BME280;14425;56.136;40.360;2023-02-26T11:45:20;97721.00;;;2.72;91.84
26487;BME280;14425;56.136;40.360;2023-02-26T11:47:48;97724.09;;;2.88;91.27
26487;BME280;14425;56.136;40.360;2023-02-26T11:50:18;97723.28;;;2.65;91.76
26487;BME280;14425;56.136;40.360;2023-02-26T11:52:53;97722.56;;;2.69;90.47
26487;BME280;14425;56.136;40.360;2023-02-26T11:55:21;97723.97;;;3.09;88.58
26487;BME280;14425;56.136;40.360;2023-02-26T11:57:53;97732.34;;;2.82;88.57
26487;BME280;14425;56.136;40.360;2023-02-26T12:00:39;97728.69;;;2.50;88.85
26487;BME280;14425;56.136;40.360;2023-02-26T12:03:14;97728.16;;;2.83;89.99
26487;BME280;14425;56.136;40.360;2023-02-26T12:05:40;97766.28;;;2.81;88.89
26487;BME280;14425;56.136;40.360;2023-02-26T12:08:30;97731.25;;;2.74;88.83
26487;BME280;14425;56.136;40.360;2023-02-26T12:22:34;97744.94;;;3.02;84.08
26487;BME280;14425;56.136;40.360;2023-02-26T12:47:31;97753.75;;;2.16;90.44
26487;BME280;14425;56.136;40.360;2023-02-26T13:00:48;97756.75;;;2.06;90.36
26487;BME280;14425;56.136;40.360;2023-02-26T13:12:30;97773.25;;;2.63;85.91
26487;BME280;14425;56.136;40.360;2023-02-26T13:15:38;97788.22;;;2.32;87.54
26487;BME280;14425;56.136;40.360;2023-02-26T13:18:32;97781.94;;;2.45;88.96
26487;BME280;14425;56.136;40.360;2023-02-26T13:21:12;97793.06;;;2.25;92.99
26487;BME280;14425;56.136;40.360;2023-02-26T13:23:57;97788.53;;;2.40;92.89
26487;BME280;14425;56.136;40.360;2023-02-26T13:26:25;97816.41;;;2.14;99.02
26487;BME280;14425;56.136;40.360;2023-02-26T13:29:04;97790.56;;;1.61;100.00
26487;BME280;14425;56.136;40.360;2023-02-26T13:32:26;97798.22;;;1.84;100.00
26487;BME280;14425;56.136;40.360;2023-02-26T13:37:32;97801.03;;;1.69;100.00
26487;BME280;14425;56.136;40.360;2023-02-26T13:40:18;97806.91;;;1.89;100.00
26487;BME280;14425;56.136;40.360;2023-02-26T13:45:58;97811.19;;;1.90;100.00
26487;BME280;14425;56.136;40.360;2023-02-26T13:51:06;97808.72;;;1.71;100.00
26487;BME280;14425;56.136;40.360;2023-02-26T13:53:45;97818.47;;;1.60;99.59
26487;BME280;14425;56.136;40.360;2023-02-26T13:59:46;97818.47;;;1.60;94.59
26487;BME280;14425;56.136;40.360;2023-02-26T14:04:59;97838.00;;;2.03;91.71
26487;BME280;14425;56.136;40.360;2023-02-26T14:07:52;97834.66;;;1.83;90.85
26487;BME280;14425;56.136;40.360;2023-02-26T14:10:26;97842.50;;;1.68;91.65
26487;BME280;14425;56.136;40.360;2023-02-26T14:13:20;97828.94;;;1.89;90.34
26487;BME280;14425;56.136;40.360;2023-02-26T14:24:04;97835.19;;;1.97;86.75
26487;BME280;14425;56.136;40.360;2023-02-26T14:26:33;97838.53;;;1.75;90.23
26487;BME280;14425;56.136;40.360;2023-02-26T14:34:24;97832.16;;;1.63;89.49
26487;BME280;14425;56.136;40.360;2023-02-26T14:36:57;97839.59;;;2.01;87.98
26487;BME280;14425;56.136;40.360;2023-02-26T14:41:55;97844.13;;;1.87;86.06
26487;BME280;14425;56.136;40.360;2023-02-26T14:44:25;97846.31;;;1.78;87.46
26487;BME280;14425;56.136;40.360;2023-02-26T14:46:52;97849.97;;;1.84;88.28
26487;BME280;14425;56.136;40.360;2023-02-26T14:49:26;97849.44;;;1.72;87.87
26487;BME280;14425;56.136;40.360;2023-02-26T15:00:39;97863.47;;;1.83;86.37
26487;BME280;14425;56.136;40.360;2023-02-26T15:06:08;97863.72;;;1.90;87.30
26487;BME280;14425;56.136;40.360;2023-02-26T15:25:01;97877.03;;;1.63;89.14
26487;BME280;14425;56.136;40.360;2023-02-26T15:27:30;97893.53;;;1.73;87.82
26487;BME280;14425;56.136;40.360;2023-02-26T15:29:56;97874.34;;;1.60;88.96
26487;BME280;14425;56.136;40.360;2023-02-26T15:32:27;97864.38;;;1.64;90.00
26487;BME280;14425;56.136;40.360;2023-02-26T15:35:15;97876.19;;;2.05;87.35
26487;BME280;14425;56.136;40.360;2023-02-26T15:37:41;97867.44;;;1.98;87.30
26487;BME280;14425;56.136;40.360;2023-02-26T15:40:07;97886.91;;;1.76;88.46
26487;BME280;14425;56.136;40.360;2023-02-26T15:42:39;97887.94;;;1.41;91.60
26487;BME280;14425;56.136;40.360;2023-02-26T15:45:20;97894.28;;;1.51;93.13
26487;BME280;14425;56.136;40.360;2023-02-26T15:47:54;97899.69;;;1.58;93.77
26487;BME280;14425;56.136;40.360;2023-02-26T15:50:25;97900.63;;;1.60;92.99
26487;BME280;14425;56.136;40.360;2023-02-26T15:52:55;97901.88;;;1.70;92.69
26487;BME280;14425;56.136;40.360;2023-02-26T15:55:22;97914.53;;;1.49;94.49
26487;BME280;14425;56.136;40.360;2023-02-26T15:57:48;97916.22;;;1.68;93.49
26487;BME280;14425;56.136;40.360;2023-02-26T16:00:17;97912.44;;;1.79;93.62
26487;BME280;14425;56.136;40.360;2023-02-26T16:02:49;97903.06;;;1.78;92.78
26487;BME280;14425;56.136;40.360;2023-02-26T16:05:15;97898.00;;;1.59;94.45
26487;BME280;14425;56.136;40.360;2023-02-26T16:07:41;97897.88;;;1.56;95.42
26487;BME280;14425;56.136;40.360;2023-02-26T16:10:15;97921.56;;;1.55;97.36